sensor_id;sensor_type;location;lat;lon;timestamp;temperature;humidity
7496;DHT22;3789;47.064;15.482;2022-09-17T00:01:31;12.70;99.90
7496;DHT22;3789;47.064;15.482;2022-09-17T00:04:10;12.70;99.90
7496;DHT22;3789;47.064;15.482;2022-09-17T00:06:39;12.70;99.90
7496;DHT22;3789;47.064;15.482;2022-09-17T00:09:10;12.70;99.90
7496;DHT22;3789;47.064;15.482;2022-09-17T00:11:47;12.70;99.90
7496;DHT22;3789;47.064;15.482;2022-09-17T00:14:17;12.70;99.90
7496;DHT22;3789;47.064;15.482;2022-09-17T00:16:47;12.70;99.90
7496;DHT22;3789;47.064;15.482;2022-09-17T00:19:27;12.70;99.90
7496;DHT22;3789;47.064;15.482;2022-09-17T00:21:56;12.70;99.90
7496;DHT22;3789;47.064;15.482;2022-09-17T00:24:28;12.70;99.90
7496;DHT22;3789;47.064;15.482;2022-09-17T00:26:56;12.70;99.90
7496;DHT22;3789;47.064;15.482;2022-09-17T00:29:30;12.80;99.90
7496;DHT22;3789;47.064;15.482;2022-09-17T00:32:02;12.80;99.90
7496;DHT22;3789;47.064;15.482;2022-09-17T00:34:31;12.80;99.90
7496;DHT22;3789;47.064;15.482;2022-09-17T00:37:07;12.70;99.90
7496;DHT22;3789;47.064;15.482;2022-09-17T00:39:36;12.80;99.90
7496;DHT22;3789;47.064;15.482;2022-09-17T00:42:05;12.80;99.90
7496;DHT22;3789;47.064;15.482;2022-09-17T00:44:49;12.80;99.90
7496;DHT22;3789;47.064;15.482;2022-09-17T00:47:24;12.80;99.90
7496;DHT22;3789;47.064;15.482;2022-09-17T00:50:13;12.70;99.90
7496;DHT22;3789;47.064;15.482;2022-09-17T00:53:20;12.80;99.90
7496;DHT22;3789;47.064;15.482;2022-09-17T00:56:08;12.80;99.90
7496;DHT22;3789;47.064;15.482;2022-09-17T00:58:43;12.80;99.90
7496;DHT22;3789;47.064;15.482;2022-09-17T01:01:10;12.80;99.90
7496;DHT22;3789;47.064;15.482;2022-09-17T01:03:39;12.80;99.90
7496;DHT22;3789;47.064;15.482;2022-09-17T01:32:51;12.80;99.90
7496;DHT22;3789;47.064;15.482;2022-09-17T01:38:46;12.80;99.90
7496;DHT22;3789;47.064;15.482;2022-09-17T01:41:40;12.80;99.90
7496;DHT22;3789;47.064;15.482;2022-09-17T01:47:03;12.90;99.90
7496;DHT22;3789;47.064;15.482;2022-09-17T01:49:34;12.90;99.90
7496;DHT22;3789;47.064;15.482;2022-09-17T01:52:05;12.80;99.90
7496;DHT22;3789;47.064;15.482;2022-09-17T01:54:37;12.70;99.90
7496;DHT22;3789;47.064;15.482;2022-09-17T01:59:40;12.40;99.90
7496;DHT22;3789;47.064;15.482;2022-09-17T02:02:34;12.50;99.90
7496;DHT22;3789;47.064;15.482;2022-09-17T02:05:09;12.60;99.90
7496;DHT22;3789;47.064;15.482;2022-09-17T02:07:42;12.60;99.90
7496;DHT22;3789;47.064;15.482;2022-09-17T02:10:14;12.60;99.90
7496;DHT22;3789;47.064;15.482;2022-09-17T02:12:47;12.60;99.90
7496;DHT22;3789;47.064;15.482;2022-09-17T02:15:21;12.60;99.90
7496;DHT22;3789;47.064;15.482;2022-09-17T02:17:56;12.60;99.90
7496;DHT22;3789;47.064;15.482;2022-09-17T02:20:30;12.60;99.90
7496;DHT22;3789;47.064;15.482;2022-09-17T02:23:07;12.60;99.90
7496;DHT22;3789;47.064;15.482;2022-09-17T02:25:46;12.60;99.90
7496;DHT22;3789;47.064;15.482;2022-09-17T02:28:25;12.60;99.90
7496;DHT22;3789;47.064;15.482;2022-09-17T02:30:54;12.60;99.90
7496;DHT22;3789;47.064;15.482;2022-09-17T02:33:21;12.70;99.90
7496;DHT22;3789;47.064;15.482;2022-09-17T02:35:49;12.60;99.90
7496;DHT22;3789;47.064;15.482;2022-09-17T02:38:24;12.70;99.90
7496;DHT22;3789;47.064;15.482;2022-09-17T02:49:45;12.70;99.90
7496;DHT22;3789;47.064;15.482;2022-09-17T02:52:35;12.70;99.90
7496;DHT22;3789;47.064;15.482;2022-09-17T02:58:05;12.70;99.90
7496;DHT22;3789;47.064;15.482;2022-09-17T03:00:35;12.70;99.90
7496;DHT22;3789;47.064;15.482;2022-09-17T03:03:35;12.50;99.90
7496;DHT22;3789;47.064;15.482;2022-09-17T03:06:04;12.40;99.90
7496;DHT22;3789;47.064;15.482;2022-09-17T03:08:34;12.30;99.90
7496;DHT22;3789;47.064;15.482;2022-09-17T03:11:03;12.30;99.90
7496;DHT22;3789;47.064;15.482;2022-09-17T03:13:31;12.20;99.90
7496;DHT22;3789;47.064;15.482;2022-09-17T03:15:58;12.20;99.90
7496;DHT22;3789;47.064;15.482;2022-09-17T03:18:25;12.20;99.90
7496;DHT22;3789;47.064;15.482;2022-09-17T03:20:52;12.20;99.90
7496;DHT22;3789;47.064;15.482;2022-09-17T03:23:20;12.20;99.90
7496;DHT22;3789;47.064;15.482;2022-09-17T03:25:47;12.20;99.90
7496;DHT22;3789;47.064;15.482;2022-09-17T03:28:17;12.30;99.90
7496;DHT22;3789;47.064;15.482;2022-09-17T03:30:45;12.40;99.90
7496;DHT22;3789;47.064;15.482;2022-09-17T03:33:12;12.40;99.90
7496;DHT22;3789;47.064;15.482;2022-09-17T03:35:44;12.40;99.90
7496;DHT22;3789;47.064;15.482;2022-09-17T03:38:12;12.40;99.90
7496;DHT22;3789;47.064;15.482;2022-09-17T03:40:40;12.40;99.90
7496;DHT22;3789;47.064;15.482;2022-09-17T03:43:07;12.50;99.90
7496;DHT22;3789;47.064;15.482;2022-09-17T03:45:34;12.50;99.90
7496;DHT22;3789;47.064;15.482;2022-09-17T03:48:02;12.50;99.90
7496;DHT22;3789;47.064;15.482;2022-09-17T03:50:29;12.50;99.90
7496;DHT22;3789;47.064;15.482;2022-09-17T03:52:56;12.50;99.90
7496;DHT22;3789;47.064;15.482;2022-09-17T03:55:24;12.50;99.90
7496;DHT22;3789;47.064;15.482;2022-09-17T03:57:51;12.50;99.90
7496;DHT22;3789;47.064;15.482;2022-09-17T04:00:18;12.50;99.90
7496;DHT22;3789;47.064;15.482;2022-09-17T04:02:45;12.50;99.90
7496;DHT22;3789;47.064;15.482;2022-09-17T04:05:12;12.60;99.90
7496;DHT22;3789;47.064;15.482;2022-09-17T04:07:40;12.60;99.90
7496;DHT22;3789;47.064;15.482;2022-09-17T04:10:08;12.60;99.90
7496;DHT22;3789;47.064;15.482;2022-09-17T04:12:35;12.60;99.90
7496;DHT22;3789;47.064;15.482;2022-09-17T04:15:03;12.60;99.90
7496;DHT22;3789;47.064;15.482;2022-09-17T04:17:30;12.60;99.90
7496;DHT22;3789;47.064;15.482;2022-09-17T04:19:57;12.60;99.90
7496;DHT22;3789;47.064;15.482;2022-09-17T04:22:25;12.60;99.90
7496;DHT22;3789;47.064;15.482;2022-09-17T04:24:52;12.60;99.90
7496;DHT22;3789;47.064;15.482;2022-09-17T04:27:19;12.50;99.90
7496;DHT22;3789;47.064;15.482;2022-09-17T04:29:46;12.50;99.90
7496;DHT22;3789;47.064;15.482;2022-09-17T04:32:14;12.50;99.90
7496;DHT22;3789;47.064;15.482;2022-09-17T04:34:41;12.50;99.90
7496;DHT22;3789;47.064;15.482;2022-09-17T04:37:08;12.50;99.90
7496;DHT22;3789;47.064;15.482;2022-09-17T04:39:35;12.60;99.90
7496;DHT22;3789;47.064;15.482;2022-09-17T04:42:03;12.60;99.90
7496;DHT22;3789;47.064;15.482;2022-09-17T04:44:30;12.70;99.90
7496;DHT22;3789;47.064;15.482;2022-09-17T04:46:57;12.60;99.90
7496;DHT22;3789;47.064;15.482;2022-09-17T04:49:25;12.50;99.90
7496;DHT22;3789;47.064;15.482;2022-09-17T04:51:55;12.50;99.90
7496;DHT22;3789;47.064;15.482;2022-09-17T04:54:22;12.50;99.90
7496;DHT22;3789;47.064;15.482;2022-09-17T04:56:50;12.50;99.90
7496;DHT22;3789;47.064;15.482;2022-09-17T04:59:17;12.50;99.90
7496;DHT22;3789;47.064;15.482;2022-09-17T05:01:44;12.50;99.90
7496;DHT22;3789;47.064;15.482;2022-09-17T05:04:11;12.50;99.90
7496;DHT22;3789;47.064;15.482;2022-09-17T05:06:38;12.50;99.90
7496;DHT22;3789;47.064;15.482;2022-09-17T05:09:05;12.50;99.90
7496;DHT22;3789;47.064;15.482;2022-09-17T05:11:33;12.50;99.90
7496;DHT22;3789;47.064;15.482;2022-09-17T05:14:00;12.50;99.90
7496;DHT22;3789;47.064;15.482;2022-09-17T05:16:28;12.50;99.90
7496;DHT22;3789;47.064;15.482;2022-09-17T05:18:55;12.30;99.90
7496;DHT22;3789;47.064;15.482;2022-09-17T05:21:24;12.10;99.90
7496;DHT22;3789;47.064;15.482;2022-09-17T05:23:51;12.00;99.90
7496;DHT22;3789;47.064;15.482;2022-09-17T05:26:18;11.80;99.90
7496;DHT22;3789;47.064;15.482;2022-09-17T05:28:45;11.70;99.90
7496;DHT22;3789;47.064;15.482;2022-09-17T05:31:12;11.70;99.90
7496;DHT22;3789;47.064;15.482;2022-09-17T05:33:40;11.90;99.90
7496;DHT22;3789;47.064;15.482;2022-09-17T05:36:07;12.00;99.90
7496;DHT22;3789;47.064;15.482;2022-09-17T05:38:34;12.00;99.90
7496;DHT22;3789;47.064;15.482;2022-09-17T05:41:05;12.10;99.90
7496;DHT22;3789;47.064;15.482;2022-09-17T05:43:33;12.00;99.90
7496;DHT22;3789;47.064;15.482;2022-09-17T05:46:04;12.10;99.90
7496;DHT22;3789;47.064;15.482;2022-09-17T05:48:33;12.20;99.90
7496;DHT22;3789;47.064;15.482;2022-09-17T05:51:00;12.30;99.90
7496;DHT22;3789;47.064;15.482;2022-09-17T05:53:27;12.30;99.90
7496;DHT22;3789;47.064;15.482;2022-09-17T05:55:58;12.30;99.90
7496;DHT22;3789;47.064;15.482;2022-09-17T05:58:25;12.30;99.90
7496;DHT22;3789;47.064;15.482;2022-09-17T06:00:52;12.30;99.90
7496;DHT22;3789;47.064;15.482;2022-09-17T06:03:20;12.30;99.90
7496;DHT22;3789;47.064;15.482;2022-09-17T06:05:57;12.30;99.90
7496;DHT22;3789;47.064;15.482;2022-09-17T06:08:26;12.30;99.90
7496;DHT22;3789;47.064;15.482;2022-09-17T06:10:53;12.30;99.90
7496;DHT22;3789;47.064;15.482;2022-09-17T06:13:27;12.30;99.90
7496;DHT22;3789;47.064;15.482;2022-09-17T06:15:54;12.30;99.90
7496;DHT22;3789;47.064;15.482;2022-09-17T06:18:21;12.30;99.90
7496;DHT22;3789;47.064;15.482;2022-09-17T06:20:59;12.30;99.90
7496;DHT22;3789;47.064;15.482;2022-09-17T06:23:30;12.40;99.90
7496;DHT22;3789;47.064;15.482;2022-09-17T06:26:01;12.40;99.90
7496;DHT22;3789;47.064;15.482;2022-09-17T06:28:28;12.40;99.90
7496;DHT22;3789;47.064;15.482;2022-09-17T06:31:00;12.40;99.90
7496;DHT22;3789;47.064;15.482;2022-09-17T06:33:28;12.30;99.90
7496;DHT22;3789;47.064;15.482;2022-09-17T06:35:57;12.40;99.90
7496;DHT22;3789;47.064;15.482;2022-09-17T06:38:27;12.50;99.90
7496;DHT22;3789;47.064;15.482;2022-09-17T06:40:54;12.30;99.90
7496;DHT22;3789;47.064;15.482;2022-09-17T06:43:22;12.30;99.90
7496;DHT22;3789;47.064;15.482;2022-09-17T06:45:53;12.30;99.90
7496;DHT22;3789;47.064;15.482;2022-09-17T06:48:22;12.30;99.90
7496;DHT22;3789;47.064;15.482;2022-09-17T06:50:50;12.40;99.90
7496;DHT22;3789;47.064;15.482;2022-09-17T06:53:17;12.40;99.90
7496;DHT22;3789;47.064;15.482;2022-09-17T06:55:45;12.40;99.90
7496;DHT22;3789;47.064;15.482;2022-09-17T06:58:13;12.40;99.90
7496;DHT22;3789;47.064;15.482;2022-09-17T07:00:40;12.40;99.90
7496;DHT22;3789;47.064;15.482;2022-09-17T07:03:08;12.30;99.90
7496;DHT22;3789;47.064;15.482;2022-09-17T07:05:35;12.10;99.90
7496;DHT22;3789;47.064;15.482;2022-09-17T07:08:02;12.10;99.90
7496;DHT22;3789;47.064;15.482;2022-09-17T07:10:30;12.10;99.90
7496;DHT22;3789;47.064;15.482;2022-09-17T07:12:58;12.20;99.90
7496;DHT22;3789;47.064;15.482;2022-09-17T07:15:25;12.30;99.90
7496;DHT22;3789;47.064;15.482;2022-09-17T07:17:52;12.30;99.90
7496;DHT22;3789;47.064;15.482;2022-09-17T07:20:19;12.30;99.90
7496;DHT22;3789;47.064;15.482;2022-09-17T07:22:54;12.30;99.90
7496;DHT22;3789;47.064;15.482;2022-09-17T07:25:26;12.40;99.90
7496;DHT22;3789;47.064;15.482;2022-09-17T07:27:53;12.50;99.90
7496;DHT22;3789;47.064;15.482;2022-09-17T07:30:21;12.60;99.90
7496;DHT22;3789;47.064;15.482;2022-09-17T07:32:48;12.60;99.90
7496;DHT22;3789;47.064;15.482;2022-09-17T07:35:15;12.60;99.90
7496;DHT22;3789;47.064;15.482;2022-09-17T07:37:43;12.70;99.90
7496;DHT22;3789;47.064;15.482;2022-09-17T07:40:10;12.70;99.90
7496;DHT22;3789;47.064;15.482;2022-09-17T07:42:37;12.70;99.90
7496;DHT22;3789;47.064;15.482;2022-09-17T07:45:05;12.80;99.90
7496;DHT22;3789;47.064;15.482;2022-09-17T07:47:37;12.80;99.90
7496;DHT22;3789;47.064;15.482;2022-09-17T07:50:06;12.80;99.90
7496;DHT22;3789;47.064;15.482;2022-09-17T07:52:33;12.90;99.90
7496;DHT22;3789;47.064;15.482;2022-09-17T07:55:00;12.90;99.90
7496;DHT22;3789;47.064;15.482;2022-09-17T07:57:27;12.90;99.90
7496;DHT22;3789;47.064;15.482;2022-09-17T07:59:54;12.90;99.90
7496;DHT22;3789;47.064;15.482;2022-09-17T08:02:21;12.80;99.90
7496;DHT22;3789;47.064;15.482;2022-09-17T08:04:50;12.70;99.90
7496;DHT22;3789;47.064;15.482;2022-09-17T08:07:17;12.70;99.90
7496;DHT22;3789;47.064;15.482;2022-09-17T08:09:44;12.60;99.90
7496;DHT22;3789;47.064;15.482;2022-09-17T08:12:12;12.60;99.90
7496;DHT22;3789;47.064;15.482;2022-09-17T08:14:39;12.70;99.90
7496;DHT22;3789;47.064;15.482;2022-09-17T08:17:06;12.80;99.90
7496;DHT22;3789;47.064;15.482;2022-09-17T08:19:34;12.90;99.90
7496;DHT22;3789;47.064;15.482;2022-09-17T08:22:01;12.90;99.90
7496;DHT22;3789;47.064;15.482;2022-09-17T08:24:28;12.90;99.90
7496;DHT22;3789;47.064;15.482;2022-09-17T08:26:55;12.90;99.90
7496;DHT22;3789;47.064;15.482;2022-09-17T08:29:23;13.00;99.90
7496;DHT22;3789;47.064;15.482;2022-09-17T08:31:50;13.00;99.90
7496;DHT22;3789;47.064;15.482;2022-09-17T08:34:17;13.00;99.90
7496;DHT22;3789;47.064;15.482;2022-09-17T08:36:44;13.10;99.90
7496;DHT22;3789;47.064;15.482;2022-09-17T08:39:11;13.10;99.90
7496;DHT22;3789;47.064;15.482;2022-09-17T08:44:25;13.00;99.90
7496;DHT22;3789;47.064;15.482;2022-09-17T08:46:58;13.00;99.90
7496;DHT22;3789;47.064;15.482;2022-09-17T09:01:40;13.10;99.90
7496;DHT22;3789;47.064;15.482;2022-09-17T09:06:34;13.10;99.90
7496;DHT22;3789;47.064;15.482;2022-09-17T09:09:13;13.10;99.90
7496;DHT22;3789;47.064;15.482;2022-09-17T09:11:42;13.10;99.90
7496;DHT22;3789;47.064;15.482;2022-09-17T09:16:40;13.10;99.90
7496;DHT22;3789;47.064;15.482;2022-09-17T09:19:25;13.10;99.90
7496;DHT22;3789;47.064;15.482;2022-09-17T09:27:32;13.20;99.90
7496;DHT22;3789;47.064;15.482;2022-09-17T09:30:11;13.30;99.90
7496;DHT22;3789;47.064;15.482;2022-09-17T09:32:59;13.30;99.90
7496;DHT22;3789;47.064;15.482;2022-09-17T09:35:28;13.30;99.90
7496;DHT22;3789;47.064;15.482;2022-09-17T09:38:34;13.40;99.90
7496;DHT22;3789;47.064;15.482;2022-09-17T09:41:10;13.40;99.90
7496;DHT22;3789;47.064;15.482;2022-09-17T09:44:01;13.40;99.90
7496;DHT22;3789;47.064;15.482;2022-09-17T09:57:16;14.00;99.90
7496;DHT22;3789;47.064;15.482;2022-09-17T09:59:44;14.10;99.90
7496;DHT22;3789;47.064;15.482;2022-09-17T10:02:11;14.20;99.90
7496;DHT22;3789;47.064;15.482;2022-09-17T10:04:38;14.30;99.90
7496;DHT22;3789;47.064;15.482;2022-09-17T10:07:10;14.50;99.90
7496;DHT22;3789;47.064;15.482;2022-09-17T10:09:38;14.60;99.90
7496;DHT22;3789;47.064;15.482;2022-09-17T10:14:38;14.70;99.90
7496;DHT22;3789;47.064;15.482;2022-09-17T10:22:34;14.80;99.90
7496;DHT22;3789;47.064;15.482;2022-09-17T10:25:03;14.90;99.90
7496;DHT22;3789;47.064;15.482;2022-09-17T10:27:32;14.90;99.90
7496;DHT22;3789;47.064;15.482;2022-09-17T10:30:14;15.00;99.90
7496;DHT22;3789;47.064;15.482;2022-09-17T10:32:43;14.80;99.90
7496;DHT22;3789;47.064;15.482;2022-09-17T10:37:49;14.60;99.90
7496;DHT22;3789;47.064;15.482;2022-09-17T10:43:14;14.70;99.90
7496;DHT22;3789;47.064;15.482;2022-09-17T10:45:41;14.70;99.90
7496;DHT22;3789;47.064;15.482;2022-09-17T10:48:17;14.70;99.90
7496;DHT22;3789;47.064;15.482;2022-09-17T10:50:55;14.60;99.90
7496;DHT22;3789;47.064;15.482;2022-09-17T10:53:24;14.50;99.90
7496;DHT22;3789;47.064;15.482;2022-09-17T11:04:28;13.80;99.90
7496;DHT22;3789;47.064;15.482;2022-09-17T11:07:38;13.80;99.90
7496;DHT22;3789;47.064;15.482;2022-09-17T11:12:54;14.00;99.90
7496;DHT22;3789;47.064;15.482;2022-09-17T11:15:46;14.10;99.90
7496;DHT22;3789;47.064;15.482;2022-09-17T11:24:41;13.60;99.90
7496;DHT22;3789;47.064;15.482;2022-09-17T11:30:38;14.00;99.90
7496;DHT22;3789;47.064;15.482;2022-09-17T11:33:33;13.90;99.90
7496;DHT22;3789;47.064;15.482;2022-09-17T11:36:24;13.80;99.90
7496;DHT22;3789;47.064;15.482;2022-09-17T11:38:56;13.70;99.90
7496;DHT22;3789;47.064;15.482;2022-09-17T11:41:36;14.00;99.90
7496;DHT22;3789;47.064;15.482;2022-09-17T11:44:31;14.20;99.90
7496;DHT22;3789;47.064;15.482;2022-09-17T11:47:05;14.30;99.90
7496;DHT22;3789;47.064;15.482;2022-09-17T11:49:46;14.50;99.90
7496;DHT22;3789;47.064;15.482;2022-09-17T11:52:38;14.50;99.90
7496;DHT22;3789;47.064;15.482;2022-09-17T11:55:21;14.20;99.90
7496;DHT22;3789;47.064;15.482;2022-09-17T11:57:53;14.30;99.90
7496;DHT22;3789;47.064;15.482;2022-09-17T12:00:23;14.30;99.90
7496;DHT22;3789;47.064;15.482;2022-09-17T12:03:23;14.30;99.90
7496;DHT22;3789;47.064;15.482;2022-09-17T12:05:55;14.20;99.90
7496;DHT22;3789;47.064;15.482;2022-09-17T12:08:46;14.50;99.90
7496;DHT22;3789;47.064;15.482;2022-09-17T12:11:33;14.60;99.90
7496;DHT22;3789;47.064;15.482;2022-09-17T12:14:26;14.50;99.90
7496;DHT22;3789;47.064;15.482;2022-09-17T12:16:57;14.10;99.90
7496;DHT22;3789;47.064;15.482;2022-09-17T12:19:36;14.00;99.90
7496;DHT22;3789;47.064;15.482;2022-09-17T12:22:10;14.20;99.90
7496;DHT22;3789;47.064;15.482;2022-09-17T12:24:38;14.10;99.90
7496;DHT22;3789;47.064;15.482;2022-09-17T12:27:37;14.20;99.90
7496;DHT22;3789;47.064;15.482;2022-09-17T12:30:21;14.30;99.90
7496;DHT22;3789;47.064;15.482;2022-09-17T12:33:25;14.40;99.90
7496;DHT22;3789;47.064;15.482;2022-09-17T12:36:22;14.60;99.90
7496;DHT22;3789;47.064;15.482;2022-09-17T12:39:04;14.00;99.90
7496;DHT22;3789;47.064;15.482;2022-09-17T12:45:02;13.30;99.90
7496;DHT22;3789;47.064;15.482;2022-09-17T12:51:05;13.20;99.90
7496;DHT22;3789;47.064;15.482;2022-09-17T13:22:12;13.50;99.90
7496;DHT22;3789;47.064;15.482;2022-09-17T13:24:23;13.50;99.90
7496;DHT22;3789;47.064;15.482;2022-09-17T13:26:52;13.60;99.90
7496;DHT22;3789;47.064;15.482;2022-09-17T13:40:33;13.50;99.90
7496;DHT22;3789;47.064;15.482;2022-09-17T13:43:06;13.50;99.90
7496;DHT22;3789;47.064;15.482;2022-09-17T13:48:33;13.70;99.90
7496;DHT22;3789;47.064;15.482;2022-09-17T13:54:05;13.70;99.90
7496;DHT22;3789;47.064;15.482;2022-09-17T13:56:45;13.50;99.90
7496;DHT22;3789;47.064;15.482;2022-09-17T13:59:22;13.30;99.90
7496;DHT22;3789;47.064;15.482;2022-09-17T14:04:54;13.30;99.90
7496;DHT22;3789;47.064;15.482;2022-09-17T14:09:55;13.20;99.90
7496;DHT22;3789;47.064;15.482;2022-09-17T14:23:47;13.20;99.90
7496;DHT22;3789;47.064;15.482;2022-09-17T14:31:38;13.20;99.90
7496;DHT22;3789;47.064;15.482;2022-09-17T14:34:08;13.40;99.90
7496;DHT22;3789;47.064;15.482;2022-09-17T14:36:41;13.50;99.90
7496;DHT22;3789;47.064;15.482;2022-09-17T14:39:23;13.60;99.90
7496;DHT22;3789;47.064;15.482;2022-09-17T14:41:52;13.70;99.90
7496;DHT22;3789;47.064;15.482;2022-09-17T14:44:24;13.70;99.90
7496;DHT22;3789;47.064;15.482;2022-09-17T14:47:00;13.60;99.90
7496;DHT22;3789;47.064;15.482;2022-09-17T14:49:32;13.70;99.90
7496;DHT22;3789;47.064;15.482;2022-09-17T14:52:02;13.70;99.90
7496;DHT22;3789;47.064;15.482;2022-09-17T14:54:43;13.70;99.90
7496;DHT22;3789;47.064;15.482;2022-09-17T14:57:19;13.70;99.90
7496;DHT22;3789;47.064;15.482;2022-09-17T14:59:57;13.70;99.90
7496;DHT22;3789;47.064;15.482;2022-09-17T15:02:37;13.70;99.90
7496;DHT22;3789;47.064;15.482;2022-09-17T15:05:25;13.70;99.90
7496;DHT22;3789;47.064;15.482;2022-09-17T15:08:27;13.70;99.90
7496;DHT22;3789;47.064;15.482;2022-09-17T15:11:09;13.70;99.90
7496;DHT22;3789;47.064;15.482;2022-09-17T15:13:43;13.70;99.90
7496;DHT22;3789;47.064;15.482;2022-09-17T15:16:17;13.60;99.90
7496;DHT22;3789;47.064;15.482;2022-09-17T15:18:54;13.60;99.90
7496;DHT22;3789;47.064;15.482;2022-09-17T15:21:43;13.50;99.90
7496;DHT22;3789;47.064;15.482;2022-09-17T15:26:51;13.40;99.90
7496;DHT22;3789;47.064;15.482;2022-09-17T15:29:23;13.40;99.90
7496;DHT22;3789;47.064;15.482;2022-09-17T15:31:51;13.40;99.90
7496;DHT22;3789;47.064;15.482;2022-09-17T15:34:19;13.20;99.90
7496;DHT22;3789;47.064;15.482;2022-09-17T15:37:05;13.30;99.90
7496;DHT22;3789;47.064;15.482;2022-09-17T15:39:40;13.30;99.90
7496;DHT22;3789;47.064;15.482;2022-09-17T15:42:37;13.20;99.90
7496;DHT22;3789;47.064;15.482;2022-09-17T15:45:20;13.20;99.90
7496;DHT22;3789;47.064;15.482;2022-09-17T15:47:56;13.10;99.90
7496;DHT22;3789;47.064;15.482;2022-09-17T15:50:34;13.10;99.90
7496;DHT22;3789;47.064;15.482;2022-09-17T15:53:21;13.10;99.90
7496;DHT22;3789;47.064;15.482;2022-09-17T15:58:29;12.90;99.90
7496;DHT22;3789;47.064;15.482;2022-09-17T16:08:52;12.70;99.90
7496;DHT22;3789;47.064;15.482;2022-09-17T16:11:21;12.60;99.90
7496;DHT22;3789;47.064;15.482;2022-09-17T16:13:50;12.50;99.90
7496;DHT22;3789;47.064;15.482;2022-09-17T16:16:23;12.40;99.90
7496;DHT22;3789;47.064;15.482;2022-09-17T16:18:50;12.40;99.90
7496;DHT22;3789;47.064;15.482;2022-09-17T16:21:18;12.50;99.90
7496;DHT22;3789;47.064;15.482;2022-09-17T16:23:45;12.60;99.90
7496;DHT22;3789;47.064;15.482;2022-09-17T16:26:21;12.60;99.90
7496;DHT22;3789;47.064;15.482;2022-09-17T16:28:52;12.50;99.90
7496;DHT22;3789;47.064;15.482;2022-09-17T16:31:20;12.40;99.90
7496;DHT22;3789;47.064;15.482;2022-09-17T16:33:47;12.40;99.90
7496;DHT22;3789;47.064;15.482;2022-09-17T16:36:17;12.30;99.90
7496;DHT22;3789;47.064;15.482;2022-09-17T16:38:45;12.30;99.90
7496;DHT22;3789;47.064;15.482;2022-09-17T16:41:12;12.30;99.90
7496;DHT22;3789;47.064;15.482;2022-09-17T16:43:39;12.40;99.90
7496;DHT22;3789;47.064;15.482;2022-09-17T16:46:08;12.40;99.90
7496;DHT22;3789;47.064;15.482;2022-09-17T16:48:37;12.30;99.90
7496;DHT22;3789;47.064;15.482;2022-09-17T16:51:12;12.40;99.90
7496;DHT22;3789;47.064;15.482;2022-09-17T16:53:39;12.40;99.90
7496;DHT22;3789;47.064;15.482;2022-09-17T16:56:11;12.40;99.90
7496;DHT22;3789;47.064;15.482;2022-09-17T16:58:39;12.30;99.90
7496;DHT22;3789;47.064;15.482;2022-09-17T17:01:12;12.30;99.90
7496;DHT22;3789;47.064;15.482;2022-09-17T17:03:40;12.20;99.90
7496;DHT22;3789;47.064;15.482;2022-09-17T17:06:18;12.30;99.90
7496;DHT22;3789;47.064;15.482;2022-09-17T17:08:45;12.20;99.90
7496;DHT22;3789;47.064;15.482;2022-09-17T17:11:13;12.00;99.90
7496;DHT22;3789;47.064;15.482;2022-09-17T17:13:43;12.00;99.90
7496;DHT22;3789;47.064;15.482;2022-09-17T17:16:13;11.90;99.90
7496;DHT22;3789;47.064;15.482;2022-09-17T17:18:42;11.90;99.90
7496;DHT22;3789;47.064;15.482;2022-09-17T17:21:11;11.90;99.90
7496;DHT22;3789;47.064;15.482;2022-09-17T17:23:39;11.90;99.90
7496;DHT22;3789;47.064;15.482;2022-09-17T17:26:09;11.90;99.90
7496;DHT22;3789;47.064;15.482;2022-09-17T17:28:36;11.70;99.90
7496;DHT22;3789;47.064;15.482;2022-09-17T17:31:04;11.70;99.90
7496;DHT22;3789;47.064;15.482;2022-09-17T17:33:32;11.60;99.90
7496;DHT22;3789;47.064;15.482;2022-09-17T17:36:00;11.50;99.90
7496;DHT22;3789;47.064;15.482;2022-09-17T17:38:34;11.50;99.90
7496;DHT22;3789;47.064;15.482;2022-09-17T17:41:07;11.50;99.90
7496;DHT22;3789;47.064;15.482;2022-09-17T17:43:36;11.50;99.90
7496;DHT22;3789;47.064;15.482;2022-09-17T17:46:12;11.50;99.90
7496;DHT22;3789;47.064;15.482;2022-09-17T17:48:39;11.50;99.90
7496;DHT22;3789;47.064;15.482;2022-09-17T17:51:22;11.60;99.90
7496;DHT22;3789;47.064;15.482;2022-09-17T17:54:20;11.40;99.90
7496;DHT22;3789;47.064;15.482;2022-09-17T17:57:27;11.20;99.90
7496;DHT22;3789;47.064;15.482;2022-09-17T18:00:44;11.20;99.90
7496;DHT22;3789;47.064;15.482;2022-09-17T18:03:37;11.30;99.90
7496;DHT22;3789;47.064;15.482;2022-09-17T18:06:09;11.20;99.90
7496;DHT22;3789;47.064;15.482;2022-09-17T18:08:52;11.20;99.90
7496;DHT22;3789;47.064;15.482;2022-09-17T18:11:21;11.30;99.90
7496;DHT22;3789;47.064;15.482;2022-09-17T18:13:57;11.30;99.90
7496;DHT22;3789;47.064;15.482;2022-09-17T18:16:27;11.30;99.90
7496;DHT22;3789;47.064;15.482;2022-09-17T18:18:57;11.30;99.90
7496;DHT22;3789;47.064;15.482;2022-09-17T18:21:25;11.30;99.90
7496;DHT22;3789;47.064;15.482;2022-09-17T18:23:54;11.30;99.90
7496;DHT22;3789;47.064;15.482;2022-09-17T18:26:23;11.30;99.90
7496;DHT22;3789;47.064;15.482;2022-09-17T18:28:51;11.30;99.90
7496;DHT22;3789;47.064;15.482;2022-09-17T18:31:19;11.30;99.90
7496;DHT22;3789;47.064;15.482;2022-09-17T18:36:32;11.40;99.90
7496;DHT22;3789;47.064;15.482;2022-09-17T18:39:03;11.40;99.90
7496;DHT22;3789;47.064;15.482;2022-09-17T18:41:51;11.40;99.90
7496;DHT22;3789;47.064;15.482;2022-09-17T18:44:18;11.40;99.90
7496;DHT22;3789;47.064;15.482;2022-09-17T18:46:47;11.40;99.90
7496;DHT22;3789;47.064;15.482;2022-09-17T18:49:17;11.30;99.90
7496;DHT22;3789;47.064;15.482;2022-09-17T18:51:47;11.30;99.90
7496;DHT22;3789;47.064;15.482;2022-09-17T18:54:15;11.20;99.90
7496;DHT22;3789;47.064;15.482;2022-09-17T18:56:43;11.20;99.90
7496;DHT22;3789;47.064;15.482;2022-09-17T18:59:17;11.20;99.90
7496;DHT22;3789;47.064;15.482;2022-09-17T19:01:44;11.20;99.90
7496;DHT22;3789;47.064;15.482;2022-09-17T19:04:12;11.30;99.90
7496;DHT22;3789;47.064;15.482;2022-09-17T19:06:39;11.30;99.90
7496;DHT22;3789;47.064;15.482;2022-09-17T19:09:09;11.20;99.90
7496;DHT22;3789;47.064;15.482;2022-09-17T19:11:39;11.10;99.90
7496;DHT22;3789;47.064;15.482;2022-09-17T19:14:11;10.90;99.90
7496;DHT22;3789;47.064;15.482;2022-09-17T19:16:54;10.90;99.90
7496;DHT22;3789;47.064;15.482;2022-09-17T19:19:21;11.10;99.90
7496;DHT22;3789;47.064;15.482;2022-09-17T19:21:53;10.90;99.90
7496;DHT22;3789;47.064;15.482;2022-09-17T19:24:24;10.90;99.90
7496;DHT22;3789;47.064;15.482;2022-09-17T19:26:52;10.80;99.90
7496;DHT22;3789;47.064;15.482;2022-09-17T19:29:19;10.90;99.90
7496;DHT22;3789;47.064;15.482;2022-09-17T19:31:47;10.80;99.90
7496;DHT22;3789;47.064;15.482;2022-09-17T19:34:14;10.80;99.90
7496;DHT22;3789;47.064;15.482;2022-09-17T19:36:51;10.90;99.90
7496;DHT22;3789;47.064;15.482;2022-09-17T19:39:18;10.90;99.90
7496;DHT22;3789;47.064;15.482;2022-09-17T19:41:46;10.90;99.90
7496;DHT22;3789;47.064;15.482;2022-09-17T19:44:13;10.90;99.90
7496;DHT22;3789;47.064;15.482;2022-09-17T19:46:41;10.80;99.90